createdAt,value
2022-12-11T00:04:09.634Z,99593.50
2022-12-11T00:09:08.477Z,99600.34
2022-12-11T00:14:07.240Z,99609.06
2022-12-11T00:19:06.334Z,99612.53
2022-12-11T00:24:05.554Z,99607.25
2022-12-11T00:29:04.586Z,99607.34
2022-12-11T00:34:03.316Z,99605.19
2022-12-11T00:39:03.817Z,99611.94
2022-12-11T00:44:02.654Z,99601.31
2022-12-11T00:49:02.032Z,99609.22
2022-12-11T00:54:00.825Z,99606.44
2022-12-11T00:58:59.682Z,99603.53
2022-12-11T01:03:58.441Z,99611.31
2022-12-11T01:09:15.702Z,99609.19
2022-12-11T01:14:14.690Z,99613.75
2022-12-11T01:19:13.452Z,99618.53
2022-12-11T01:24:12.163Z,99620.16
2022-12-11T01:29:11.272Z,99615.97
2022-12-11T01:34:10.235Z,99612.38
2022-12-11T01:39:09.060Z,99614.16
2022-12-11T01:44:13.951Z,99615.25
2022-12-11T01:49:15.191Z,99623.13
2022-12-11T01:54:17.426Z,99629.81
2022-12-11T01:59:23.368Z,99617.72
2022-12-11T02:04:23.384Z,99610.13
2022-12-11T02:09:26.410Z,99618.31
2022-12-11T02:14:34.418Z,99612.94
2022-12-11T02:19:48.343Z,99606.28
2022-12-11T02:25:05.783Z,99615.38
2022-12-11T02:30:06.850Z,99610.88
2022-12-11T02:35:19.216Z,99597.56
2022-12-11T02:40:24.977Z,99597.84
2022-12-11T02:45:26.238Z,99599.34
2022-12-11T02:50:26.348Z,99604.00
2022-12-11T02:55:28.667Z,99598.78
2022-12-11T03:00:28.444Z,99604.31
2022-12-11T03:05:27.985Z,99602.81
2022-12-11T03:10:26.721Z,99602.75
2022-12-11T03:15:42.241Z,99604.59
2022-12-11T03:20:51.245Z,99603.66
2022-12-11T03:26:06.186Z,99608.94
2022-12-11T03:31:11.196Z,99606.81
2022-12-11T03:36:19.114Z,99608.81
2022-12-11T03:41:22.008Z,99610.91
2022-12-11T03:46:30.190Z,99614.19
2022-12-11T03:51:32.513Z,99620.44
2022-12-11T03:56:34.985Z,99615.59
2022-12-11T04:01:33.812Z,99610.75
2022-12-11T04:06:32.611Z,99620.28
2022-12-11T04:11:37.340Z,99615.44
2022-12-11T04:16:36.156Z,99610.00
2022-12-11T04:21:53.519Z,99622.38
2022-12-11T04:26:52.300Z,99625.41
2022-12-11T04:31:51.184Z,99622.78
2022-12-11T04:36:50.555Z,99627.19
2022-12-11T04:41:49.400Z,99614.47
2022-12-11T04:46:48.235Z,99624.53
2022-12-11T04:51:47.017Z,99608.53
2022-12-11T04:56:45.827Z,99612.06
2022-12-11T05:01:44.803Z,99609.91
2022-12-11T05:06:43.919Z,99601.03
2022-12-11T05:11:42.883Z,99593.69
2022-12-11T05:16:41.632Z,99590.97
2022-12-11T05:21:40.458Z,99596.22
2022-12-11T05:26:39.227Z,99590.25
2022-12-11T05:31:38.054Z,99582.78
2022-12-11T05:36:37.009Z,99577.81
2022-12-11T05:41:35.811Z,99589.59
2022-12-11T05:46:35.704Z,99585.59
2022-12-11T05:51:35.082Z,99577.75
2022-12-11T05:56:35.930Z,99586.56
2022-12-11T06:01:38.335Z,99581.97
2022-12-11T06:06:37.799Z,99575.31
2022-12-11T06:11:36.567Z,99578.66
2022-12-11T06:16:35.530Z,99590.47
2022-12-11T06:21:34.457Z,99600.41
2022-12-11T06:26:33.318Z,99592.34
2022-12-11T06:31:32.179Z,99597.25
2022-12-11T06:36:30.964Z,99591.41
2022-12-11T06:41:29.865Z,99590.41
2022-12-11T06:46:28.832Z,99599.53
2022-12-11T06:51:27.700Z,99612.72
2022-12-11T06:56:26.526Z,99605.66
2022-12-11T07:01:27.773Z,99611.91
2022-12-11T07:06:28.443Z,99612.91
2022-12-11T07:11:27.281Z,99617.69
2022-12-11T07:16:26.389Z,99622.34
2022-12-11T07:21:25.349Z,99617.53
2022-12-11T07:26:24.157Z,99619.22
2022-12-11T07:31:25.065Z,99617.13
2022-12-11T07:36:24.532Z,99628.19
2022-12-11T07:41:23.726Z,99623.03
2022-12-11T07:46:27.745Z,99632.50
2022-12-11T07:51:29.850Z,99625.72
2022-12-11T07:56:30.376Z,99633.50
2022-12-11T08:01:32.161Z,99639.91
2022-12-11T08:06:33.574Z,99635.59
2022-12-11T08:11:32.397Z,99637.75
2022-12-11T08:16:31.939Z,99638.66
2022-12-11T08:21:30.763Z,99627.56
2022-12-11T08:26:33.703Z,99634.97
2022-12-11T08:31:33.217Z,99640.66
2022-12-11T08:36:32.662Z,99641.50
2022-12-11T08:41:31.796Z,99626.56
2022-12-11T08:46:32.638Z,99626.47
2022-12-11T08:51:31.921Z,99632.50
2022-12-11T08:56:30.850Z,99625.72
2022-12-11T09:01:30.027Z,99625.91
2022-12-11T09:06:30.712Z,99633.63
2022-12-11T09:11:32.944Z,99630.03
2022-12-11T09:16:32.525Z,99638.25
2022-12-11T09:21:31.369Z,99641.31
2022-12-11T09:26:31.388Z,99632.41
2022-12-11T09:31:34.401Z,99627.38
2022-12-11T09:36:33.996Z,99628.03
2022-12-11T09:41:38.010Z,99628.47
2022-12-11T09:46:39.141Z,99631.34
2022-12-11T09:51:48.030Z,99628.47
2022-12-11T09:57:02.360Z,99624.19
2022-12-11T10:02:18.993Z,99627.03
2022-12-11T10:07:30.879Z,99623.31
2022-12-11T10:13:11.003Z,99616.81
2022-12-11T10:18:15.910Z,99611.91
2022-12-11T10:23:40.479Z,99601.97
2022-12-11T10:28:39.535Z,99592.47
2022-12-11T10:33:41.382Z,99587.69
2022-12-11T10:38:47.863Z,99600.72
2022-12-11T10:43:49.869Z,99589.75
2022-12-11T10:48:55.415Z,99582.38
2022-12-11T10:54:02.653Z,99584.91
2022-12-11T10:59:05.410Z,99581.59
2022-12-11T11:04:14.514Z,99564.72
2022-12-11T11:09:35.606Z,99563.28
2022-12-11T11:14:34.348Z,99547.28
2022-12-11T11:19:36.953Z,99548.41
2022-12-11T11:24:56.150Z,99545.72
2022-12-11T11:29:58.371Z,99552.81
2022-12-11T11:35:12.333Z,99550.69
2022-12-11T11:40:22.059Z,99552.72
2022-12-11T11:45:27.224Z,99542.59
2022-12-11T11:50:33.837Z,99529.13
2022-12-11T11:55:47.532Z,99526.78
2022-12-11T12:00:46.413Z,99521.84
2022-12-11T12:06:12.075Z,99518.91
2022-12-11T12:11:30.905Z,99511.84
2022-12-11T12:16:53.113Z,99506.59
2022-12-11T12:21:53.245Z,99509.63
2022-12-11T12:27:50.514Z,99505.59
2022-12-11T12:32:39.936Z,99501.94
2022-12-11T12:37:54.062Z,99506.75
2022-12-11T12:42:55.835Z,99510.53
2022-12-11T12:47:54.837Z,99504.31
2022-12-11T12:52:56.226Z,99498.56
2022-12-11T12:58:05.273Z,99478.81
2022-12-11T13:03:17.933Z,99480.06
2022-12-11T13:08:25.642Z,99477.94
2022-12-11T13:13:38.118Z,99477.19
2022-12-11T13:18:39.585Z,99474.59
2022-12-11T13:23:40.335Z,99467.19
2022-12-11T13:28:38.992Z,99477.09
2022-12-11T13:33:51.225Z,99475.47
2022-12-11T13:39:04.720Z,99482.94
2022-12-11T13:44:05.650Z,99484.25
2022-12-11T13:49:07.532Z,99488.69
2022-12-11T13:54:19.645Z,99503.72
2022-12-11T13:59:29.012Z,99508.38
2022-12-11T14:04:29.164Z,99498.94
2022-12-11T14:09:28.671Z,99494.13
2022-12-11T14:14:43.614Z,99492.28
2022-12-11T14:19:48.035Z,99502.13
2022-12-11T14:24:55.988Z,99503.00
2022-12-11T14:29:55.623Z,99498.63
2022-12-11T14:34:55.387Z,99500.25
2022-12-11T14:39:56.938Z,99498.16
2022-12-11T14:45:03.292Z,99505.66
2022-12-11T14:50:25.919Z,99510.09
2022-12-11T14:55:28.629Z,99505.63
2022-12-11T15:00:32.307Z,99517.13
2022-12-11T15:05:37.195Z,99527.16
2022-12-11T15:10:42.808Z,99519.38
2022-12-11T15:15:48.288Z,99520.94
2022-12-11T15:20:55.110Z,99525.06
2022-12-11T15:25:56.791Z,99526.28
2022-12-11T15:30:58.677Z,99522.94
2022-12-11T15:36:06.126Z,99521.09
2022-12-11T15:41:06.249Z,99523.75
2022-12-11T15:46:05.849Z,99507.13
2022-12-11T15:51:04.600Z,99512.41
2022-12-11T15:56:03.410Z,99517.44
2022-12-11T16:01:02.308Z,99518.56
2022-12-11T16:06:01.199Z,99521.47
2022-12-11T16:11:00.242Z,99532.34
2022-12-11T16:15:59.463Z,99531.56
2022-12-11T16:20:58.667Z,99533.28
2022-12-11T16:25:57.702Z,99529.53
2022-12-11T16:30:56.465Z,99522.38
2022-12-11T16:35:55.574Z,99539.63
2022-12-11T16:41:02.071Z,99530.81
2022-12-11T16:46:00.965Z,99522.56
2022-12-11T16:50:59.779Z,99519.56
2022-12-11T16:55:58.800Z,99522.31
2022-12-11T17:01:02.241Z,99525.69
2022-12-11T17:06:01.256Z,99525.00
2022-12-11T17:10:59.962Z,99523.81
2022-12-11T17:15:58.933Z,99535.38
2022-12-11T17:20:57.851Z,99538.97
2022-12-11T17:25:56.793Z,99533.28
2022-12-11T17:30:55.899Z,99529.81
2022-12-11T17:35:55.398Z,99526.88
2022-12-11T17:40:55.306Z,99532.53
2022-12-11T17:45:55.445Z,99526.41
2022-12-11T17:50:55.088Z,99531.72
2022-12-11T17:55:54.025Z,99531.81
2022-12-11T18:00:55.773Z,99537.94
2022-12-11T18:05:56.983Z,99534.91
2022-12-11T18:10:56.728Z,99540.41
2022-12-11T18:16:25.787Z,99517.88
2022-12-11T18:21:28.086Z,99516.47
2022-12-11T18:26:27.442Z,99525.34
2022-12-11T18:31:26.358Z,99531.16
2022-12-11T18:36:25.420Z,99543.47
2022-12-11T18:41:24.912Z,99539.59
2022-12-11T18:46:24.366Z,99530.38
2022-12-11T18:51:26.553Z,99535.09
2022-12-11T18:56:25.272Z,99532.34
2022-12-11T19:01:26.920Z,99524.59
2022-12-11T19:06:30.221Z,99513.06
2022-12-11T19:11:31.087Z,99519.28
2022-12-11T19:16:35.859Z,99509.84
2022-12-11T19:21:36.757Z,99503.09
2022-12-11T19:26:36.580Z,99508.63
2022-12-11T19:31:35.829Z,99513.38
2022-12-11T19:36:36.661Z,99526.13
2022-12-11T19:41:36.076Z,99522.53
2022-12-11T19:46:35.874Z,99520.13
2022-12-11T19:51:38.823Z,99526.53
2022-12-11T19:56:38.103Z,99522.50
2022-12-11T20:01:38.285Z,99519.84
2022-12-11T20:06:39.457Z,99516.81
2022-12-11T20:11:40.317Z,99518.66
2022-12-11T20:17:09.393Z,99519.75
2022-12-11T20:21:58.160Z,99520.28
2022-12-11T20:26:57.463Z,99517.53
2022-12-11T20:31:56.371Z,99515.63
2022-12-11T20:36:56.441Z,99520.41
2022-12-11T20:41:55.344Z,99517.91
2022-12-11T20:46:54.305Z,99514.34
2022-12-11T20:51:53.169Z,99523.31
2022-12-11T20:56:51.900Z,99522.78
2022-12-11T21:01:51.050Z,99519.00
2022-12-11T21:06:55.131Z,99509.75
2022-12-11T21:11:56.547Z,99513.63
2022-12-11T21:16:55.611Z,99512.31
2022-12-11T21:21:54.444Z,99506.63
2022-12-11T21:26:55.767Z,99510.16
2022-12-11T21:31:54.963Z,99509.03
2022-12-11T21:36:57.204Z,99500.84
2022-12-11T21:41:58.248Z,99498.78
2022-12-11T21:46:57.282Z,99498.84
2022-12-11T21:51:56.059Z,99491.09
2022-12-11T21:56:55.116Z,99485.78
2022-12-11T22:01:54.438Z,99488.22
2022-12-11T22:06:53.433Z,99489.31
2022-12-11T22:11:57.936Z,99487.69
2022-12-11T22:16:58.988Z,99495.75
2022-12-11T22:21:57.931Z,99498.47
2022-12-11T22:26:56.892Z,99482.75
2022-12-11T22:31:55.724Z,99482.13
2022-12-11T22:36:54.508Z,99483.00
2022-12-11T22:41:53.350Z,99485.41
2022-12-11T22:46:52.048Z,99481.66
2022-12-11T22:51:50.940Z,99486.09
2022-12-11T22:56:50.276Z,99491.47
2022-12-11T23:01:49.604Z,99486.06
2022-12-11T23:06:48.428Z,99496.25
2022-12-11T23:11:47.183Z,99495.97
2022-12-11T23:16:45.981Z,99489.69
2022-12-11T23:21:45.005Z,99501.25
2022-12-11T23:26:44.200Z,99506.84
2022-12-11T23:31:42.924Z,99505.09
2022-12-11T23:36:41.735Z,99506.75
2022-12-11T23:41:40.471Z,99498.88
2022-12-11T23:46:39.301Z,99505.53
2022-12-11T23:51:39.058Z,99495.19
2022-12-11T23:56:38.767Z,99496.91
